Time;durP1;ratioP1;P1;durP2;ratioP2;P2;SDS_P1;SDS_P2;PMS_P1;PMS_P2;Temp;Humidity;BMP_temperature;BMP_pressure;BME280_temperature;BME280_humidity;BME280_pressure;Samples;Min_cycle;Max_cycle;Signal;HPM_P1;HPM_P2
2023/06/19 00:01:20;;;;;;;4.60;2.95;;;21.20;90.30;;;;;;5069332;28;20043;-63
2023/06/19 00:03:46;;;;;;;3.85;2.28;;;21.10;90.20;;;;;;5067422;28;20040;-62
2023/06/19 00:06:12;;;;;;;4.78;2.63;;;21.10;90.30;;;;;;5069348;28;20108;-63
2023/06/19 00:08:41;;;;;;;6.80;3.33;;;21.20;90.30;;;;;;5067513;28;20043;-62
2023/06/19 00:11:07;;;;;;;6.50;2.88;;;21.20;90.30;;;;;;5068028;28;20076;-62
2023/06/19 00:13:33;;;;;;;4.47;2.55;;;21.20;90.10;;;;;;5051401;28;20044;-62
2023/06/19 00:16:00;;;;;;;5.85;2.97;;;21.20;90.10;;;;;;5068721;28;20110;-62
2023/06/19 00:18:27;;;;;;;4.38;2.60;;;21.20;90.00;;;;;;5069043;28;20041;-62
2023/06/19 00:20:56;;;;;;;4.43;2.25;;;21.20;90.00;;;;;;5069138;28;20041;-61
2023/06/19 00:23:23;;;;;;;3.33;2.95;;;21.20;90.00;;;;;;5068716;28;20412;-61
2023/06/19 00:25:49;;;;;;;4.43;2.47;;;21.20;90.00;;;;;;5068899;28;20033;-61
2023/06/19 00:28:19;;;;;;;9.40;3.00;;;21.20;89.90;;;;;;5068029;28;20033;-62
2023/06/19 00:30:45;;;;;;;3.35;2.45;;;21.20;89.80;;;;;;5068403;28;20240;-61
2023/06/19 00:33:11;;;;;;;4.78;2.50;;;21.20;89.60;;;;;;5071847;28;20151;-61
2023/06/19 00:35:36;;;;;;;3.53;2.45;;;21.20;89.60;;;;;;5071626;28;20853;-61
2023/06/19 00:38:02;;;;;;;6.55;3.17;;;21.20;89.50;;;;;;5072165;28;20047;-61
2023/06/19 00:40:32;;;;;;;4.25;2.55;;;21.30;89.50;;;;;;5072731;28;20090;-61
2023/06/19 00:42:58;;;;;;;3.97;2.15;;;21.20;89.50;;;;;;5071384;28;20064;-61
2023/06/19 00:45:25;;;;;;;4.00;2.53;;;21.20;89.50;;;;;;5072067;28;20508;-61
2023/06/19 00:47:55;;;;;;;6.03;2.80;;;21.20;89.30;;;;;;5072787;28;20064;-62
2023/06/19 00:50:24;;;;;;;4.32;2.28;;;21.20;89.10;;;;;;5071657;28;20469;-62
2023/06/19 00:52:50;;;;;;;7.32;3.40;;;21.20;88.90;;;;;;5053824;28;20573;-62
2023/06/19 00:55:17;;;;;;;5.20;2.35;;;21.30;88.80;;;;;;5071230;28;20140;-62
2023/06/19 00:57:43;;;;;;;4.85;2.38;;;21.30;89.50;;;;;;5071745;28;20437;-63
2023/06/19 01:00:12;;;;;;;3.85;2.08;;;21.30;88.70;;;;;;5071109;28;20044;-62
2023/06/19 01:02:38;;;;;;;2.57;2.10;;;21.30;88.50;;;;;;5071132;28;20542;-62
2023/06/19 01:05:05;;;;;;;3.55;2.45;;;21.30;88.40;;;;;;5070739;28;20059;-61
2023/06/19 01:07:59;;;;;;;6.20;3.20;;;21.30;88.30;;;;;;5072229;28;20044;-61
2023/06/19 01:10:30;;;;;;;5.20;2.33;;;21.30;88.30;;;;;;5070983;28;20041;-62
2023/06/19 01:13:01;;;;;;;4.07;2.50;;;21.30;88.20;;;;;;5070618;28;20052;-62
2023/06/19 01:15:27;;;;;;;4.85;2.92;;;21.20;88.00;;;;;;5072260;28;20178;-61
2023/06/19 01:17:56;;;;;;;4.57;2.28;;;21.30;88.80;;;;;;5071018;28;20048;-62
2023/06/19 01:20:23;;;;;;;6.20;3.38;;;21.30;88.10;;;;;;5071627;28;20048;-62
2023/06/19 01:22:48;;;;;;;5.82;2.58;;;21.30;88.00;;;;;;5070636;28;20033;-64
2023/06/19 01:25:14;;;;;;;4.28;2.03;;;21.20;88.00;;;;;;5070959;28;20127;-64
2023/06/19 01:27:44;;;;;;;5.00;2.85;;;21.20;88.00;;;;;;5070009;28;20044;-64
2023/06/19 01:30:12;;;;;;;5.65;2.38;;;21.20;88.00;;;;;;5070759;28;20078;-64
2023/06/19 01:33:09;;;;;;;4.93;2.47;;;21.20;87.80;;;;;;5071156;28;20041;-63
2023/06/19 01:35:38;;;;;;;4.78;3.05;;;21.20;87.40;;;;;;5070839;28;20413;-64
2023/06/19 01:38:05;;;;;;;;;;;21.20;87.30;;;;;;5072269;28;20040;-64
2023/06/19 01:40:32;;;;;;;3.85;2.17;;;21.30;86.90;;;;;;5070079;28;20276;-64
2023/06/19 01:43:00;;;;;;;3.90;2.20;;;21.30;86.90;;;;;;5052998;28;20037;-64
2023/06/19 01:45:28;;;;;;;3.97;2.33;;;21.30;86.70;;;;;;5053697;28;20040;-64
2023/06/19 01:47:55;;;;;;;4.00;2.50;;;21.30;86.60;;;;;;5053255;28;20218;-63
2023/06/19 01:50:24;;;;;;;4.93;2.40;;;21.40;86.50;;;;;;5070521;28;20393;-63
2023/06/19 01:52:51;;;;;;;3.70;2.65;;;21.30;86.30;;;;;;5070128;28;20729;-64
2023/06/19 01:55:17;;;;;;;3.80;2.25;;;21.40;86.30;;;;;;5069881;28;20052;-64
2023/06/19 01:57:42;;;;;;;4.38;2.70;;;21.40;86.10;;;;;;5070263;28;20566;-64
2023/06/19 02:00:10;;;;;;;4.43;2.22;;;21.40;86.10;;;;;;5071315;28;20513;-64
2023/06/19 02:02:39;;;;;;;4.47;2.72;;;21.50;86.00;;;;;;5052706;28;20477;-65
2023/06/19 02:05:05;;;;;;;4.80;3.03;;;21.40;85.80;;;;;;5070135;28;20397;-62
2023/06/19 02:07:31;;;;;;;4.22;2.47;;;21.40;86.00;;;;;;5069259;28;20044;-63
2023/06/19 02:09:57;;;;;;;5.20;2.95;;;21.50;86.00;;;;;;5069775;28;20045;-64
2023/06/19 02:12:23;;;;;;;3.55;2.20;;;21.50;86.10;;;;;;5071033;28;20500;-64
2023/06/19 02:14:49;;;;;;;5.30;2.50;;;21.50;86.70;;;;;;5069473;28;20044;-64
2023/06/19 02:17:15;;;;;;;5.38;2.72;;;21.40;88.30;;;;;;5070942;28;20481;-63
2023/06/19 02:19:41;;;;;;;4.97;2.33;;;21.30;89.80;;;;;;5069807;28;20051;-62
2023/06/19 02:22:06;;;;;;;4.43;2.55;;;21.10;90.20;;;;;;5052223;28;20041;-63
2023/06/19 02:24:33;;;;;;;3.70;2.55;;;20.90;90.60;;;;;;5070767;28;20036;-66
2023/06/19 02:26:59;;;;;;;6.15;2.55;;;20.80;90.80;;;;;;5069442;28;20029;-63
2023/06/19 02:29:25;;;;;;;5.15;3.35;;;20.80;91.00;;;;;;5052154;28;20119;-63
2023/06/19 02:31:51;;;;;;;4.70;2.92;;;20.70;91.20;;;;;;5070779;28;20098;-63
2023/06/19 02:34:17;;;;;;;4.78;2.33;;;20.60;91.70;;;;;;5069407;28;20047;-63
2023/06/19 02:36:43;;;;;;;4.78;2.47;;;20.60;91.70;;;;;;5068934;28;20102;-64
2023/06/19 02:39:09;;;;;;;5.63;2.67;;;20.60;91.90;;;;;;5070473;28;20497;-63
2023/06/19 02:41:35;;;;;;;6.97;2.95;;;20.60;91.90;;;;;;5070655;28;20481;-63
2023/06/19 02:44:02;;;;;;;4.35;2.55;;;20.60;92.40;;;;;;5069979;28;20041;-64
2023/06/19 02:46:28;;;;;;;5.40;2.67;;;20.50;92.20;;;;;;5069365;28;20032;-63
2023/06/19 02:48:53;;;;;;;6.07;2.80;;;20.50;92.00;;;;;;5052381;28;20448;-63
2023/06/19 02:51:19;;;;;;;4.78;2.28;;;20.50;92.10;;;;;;5052033;28;20060;-62
2023/06/19 02:53:45;;;;;;;4.82;2.92;;;20.40;92.20;;;;;;5069616;28;20261;-63
2023/06/19 02:56:12;;;;;;;6.10;3.22;;;20.40;92.20;;;;;;5068949;28;20116;-62
2023/06/19 02:58:38;;;;;;;5.80;2.42;;;20.30;92.70;;;;;;5069736;28;20056;-63
2023/06/19 03:01:06;;;;;;;4.25;2.70;;;20.20;92.80;;;;;;5052390;28;20045;-63
2023/06/19 03:03:37;;;;;;;4.13;2.75;;;20.20;92.60;;;;;;5068311;28;20037;-64
2023/06/19 03:06:05;;;;;;;4.20;2.38;;;20.20;92.70;;;;;;5070106;28;20382;-62
2023/06/19 03:08:33;;;;;;;4.90;3.33;;;20.20;92.80;;;;;;5052083;28;20090;-62
2023/06/19 03:10:59;;;;;;;4.80;2.72;;;20.20;92.70;;;;;;5068441;28;20032;-62
2023/06/19 03:13:25;;;;;;;3.78;2.45;;;20.30;92.90;;;;;;5068598;28;20048;-63
2023/06/19 03:15:51;;;;;;;3.05;2.20;;;20.30;92.70;;;;;;5051963;28;20044;-63
2023/06/19 03:18:16;;;;;;;5.13;2.70;;;20.30;92.90;;;;;;5068226;28;20029;-63
2023/06/19 03:20:42;;;;;;;4.35;2.50;;;20.30;92.90;;;;;;5068460;28;20526;-64
2023/06/19 03:23:08;;;;;;;4.15;2.28;;;20.30;92.70;;;;;;5070109;28;20115;-63
2023/06/19 03:25:34;;;;;;;5.03;2.42;;;20.20;93.10;;;;;;5067825;28;20512;-63
2023/06/19 03:28:04;;;;;;;3.83;1.90;;;20.10;93.10;;;;;;5068392;28;20055;-63
2023/06/19 03:30:30;;;;;;;;;;;20.10;93.20;;;;;;5069024;28;20062;-63
2023/06/19 03:32:55;;;;;;;4.63;2.03;;;20.00;94.70;;;;;;5067800;28;19916;-63
2023/06/19 03:35:21;;;;;;;4.43;1.40;;;20.00;93.80;;;;;;5068375;28;20044;-63
2023/06/19 03:37:47;;;;;;;2.33;1.20;;;20.00;93.90;;;;;;5068287;28;20488;-64
2023/06/19 03:40:13;;;;;;;2.88;1.40;;;20.00;94.30;;;;;;5067674;28;20079;-63
2023/06/19 03:42:40;;;;;;;3.58;1.88;;;20.00;94.30;;;;;;5068177;28;20119;-63
2023/06/19 03:45:07;;;;;;;3.47;1.13;;;20.00;94.60;;;;;;5051558;28;20079;-63
2023/06/19 03:47:32;;;;;;;1.85;1.10;;;20.00;94.80;;;;;;5067703;28;20041;-63
2023/06/19 03:49:58;;;;;;;3.15;1.10;;;20.00;94.90;;;;;;5051413;28;20059;-64
2023/06/19 03:52:24;;;;;;;3.00;1.35;;;19.90;95.00;;;;;;5068086;28;20135;-64
2023/06/19 03:54:50;;;;;;;2.30;1.05;;;19.90;95.40;;;;;;5047280;28;20513;-62
2023/06/19 03:57:15;;;;;;;7.60;1.52;;;19.90;95.40;;;;;;5048037;28;20040;-64
2023/06/19 03:59:41;;;;;;;2.88;0.90;;;19.90;95.60;;;;;;5048770;28;20048;-64
2023/06/19 04:02:07;;;;;;;1.23;0.60;;;19.80;95.80;;;;;;5048019;28;20069;-64
2023/06/19 04:04:33;;;;;;;1.13;0.63;;;19.80;95.80;;;;;;5047803;28;20041;-63
2023/06/19 04:06:59;;;;;;;1.67;0.68;;;19.80;96.70;;;;;;5053334;28;20143;-63
2023/06/19 04:09:25;;;;;;;1.63;0.80;;;19.80;96.30;;;;;;5037844;28;20044;-62
2023/06/19 04:11:51;;;;;;;1.25;0.70;;;19.70;96.90;;;;;;5054688;28;20493;-62
2023/06/19 04:14:17;;;;;;;1.77;0.95;;;19.70;97.20;;;;;;5055330;28;20044;-64
2023/06/19 04:16:42;;;;;;;2.00;1.17;;;19.70;97.40;;;;;;5054816;28;20080;-63
2023/06/19 04:19:08;;;;;;;2.05;0.93;;;19.70;97.90;;;;;;5055687;28;20473;-63
2023/06/19 04:21:34;;;;;;;2.70;0.93;;;19.80;98.70;;;;;;5055273;28;20041;-63
2023/06/19 04:24:00;;;;;;;3.10;1.40;;;19.80;98.60;;;;;;5054382;28;20516;-62
2023/06/19 04:26:26;;;;;;;1.77;0.77;;;19.90;98.60;;;;;;5054454;28;20040;-62
2023/06/19 04:28:51;;;;;;;2.92;1.30;;;19.90;98.70;;;;;;5072947;28;20039;-63
2023/06/19 04:31:20;;;;;;;1.33;0.90;;;19.90;98.90;;;;;;5058828;28;20071;-63
2023/06/19 04:33:46;;;;;;;2.33;1.25;;;19.80;99.20;;;;;;5058716;28;20041;-63
2023/06/19 04:36:12;;;;;;;5.20;1.23;;;19.80;99.40;;;;;;5076329;28;20029;-63
2023/06/19 04:38:37;;;;;;;2.70;1.35;;;19.80;99.90;;;;;;5075396;28;20044;-62
2023/06/19 04:41:03;;;;;;;3.78;1.60;;;19.90;99.80;;;;;;5075352;28;20044;-63
2023/06/19 04:43:29;;;;;;;1.90;1.35;;;19.90;99.90;;;;;;5076239;28;20037;-63
2023/06/19 04:45:55;;;;;;;2.30;1.38;;;20.00;99.90;;;;;;5076730;28;20037;-63
2023/06/19 04:48:24;;;;;;;4.20;1.33;;;20.00;99.90;;;;;;5076678;28;20036;-62
2023/06/19 04:50:51;;;;;;;1.67;0.95;;;20.00;99.90;;;;;;5074999;28;20487;-63
2023/06/19 04:53:17;;;;;;;2.58;1.25;;;20.00;99.90;;;;;;5058513;28;20086;-63
2023/06/19 04:55:43;;;;;;;3.15;0.98;;;20.00;99.90;;;;;;5074920;28;20041;-62
2023/06/19 04:58:09;;;;;;;2.42;1.13;;;20.00;99.90;;;;;;5058603;28;20044;-61
2023/06/19 05:00:35;;;;;;;3.53;1.70;;;20.00;99.90;;;;;;5076671;28;20036;-63
2023/06/19 05:03:01;;;;;;;1.90;1.17;;;20.00;99.90;;;;;;5074516;28;20377;-63
2023/06/19 05:05:28;;;;;;;2.17;1.15;;;20.00;99.90;;;;;;5075176;28;20496;-63
2023/06/19 05:07:54;;;;;;;3.30;1.63;;;20.00;99.90;;;;;;5075229;28;20036;-62
2023/06/19 05:10:19;;;;;;;4.90;1.80;;;20.00;99.90;;;;;;5074606;28;20032;-62
2023/06/19 05:12:45;;;;;;;6.10;1.67;;;20.10;99.90;;;;;;5075150;28;20037;-62
2023/06/19 05:15:11;;;;;;;6.00;2.25;;;20.10;99.90;;;;;;5058620;28;20101;-62
2023/06/19 05:17:38;;;;;;;5.50;2.58;;;20.10;99.90;;;;;;5071579;28;20458;-62
2023/06/19 05:20:07;;;;;;;4.05;2.20;;;20.10;99.90;;;;;;5071982;28;20503;-62
2023/06/19 05:22:34;;;;;;;7.80;2.47;;;20.20;99.90;;;;;;5073367;28;20036;-63
2023/06/19 05:25:00;;;;;;;2.83;1.60;;;20.10;99.90;;;;;;5072798;28;20048;-62
2023/06/19 05:27:26;;;;;;;4.18;2.28;;;20.10;99.90;;;;;;5072070;28;20037;-62
2023/06/19 05:29:52;;;;;;;4.75;2.95;;;20.10;99.90;;;;;;5071780;28;20523;-62
2023/06/19 05:32:18;;;;;;;4.43;2.47;;;20.20;99.90;;;;;;5072643;28;20056;-61
2023/06/19 05:34:44;;;;;;;6.80;3.28;;;20.20;99.90;;;;;;5055137;28;20063;-64
2023/06/19 05:37:10;;;;;;;5.38;2.53;;;20.20;99.90;;;;;;5071676;28;20473;-61
2023/06/19 05:39:35;;;;;;;7.55;3.17;;;20.30;99.90;;;;;;5072322;28;20140;-61
2023/06/19 05:42:02;;;;;;;4.80;3.33;;;20.20;99.90;;;;;;5071403;28;20368;-63
2023/06/19 05:44:27;;;;;;;5.00;2.58;;;20.20;99.90;;;;;;5070691;28;20048;-62
2023/06/19 05:46:53;;;;;;;7.10;2.83;;;20.30;99.90;;;;;;5071726;28;20113;-62
2023/06/19 05:49:19;;;;;;;4.40;2.88;;;20.20;99.90;;;;;;5072484;28;20041;-62
2023/06/19 05:51:45;;;;;;;4.50;2.72;;;20.20;99.90;;;;;;5070673;28;20078;-63
2023/06/19 05:54:11;;;;;;;4.68;2.50;;;20.10;99.90;;;;;;5072537;28;20155;-63
2023/06/19 05:56:36;;;;;;;4.72;2.47;;;20.10;99.90;;;;;;5072538;28;20041;-63
2023/06/19 05:59:02;;;;;;;3.10;1.80;;;20.10;99.90;;;;;;5070494;28;20102;-63
2023/06/19 06:01:31;;;;;;;3.92;1.77;;;20.00;99.90;;;;;;5072405;28;20052;-61
2023/06/19 06:03:57;;;;;;;3.27;1.70;;;20.00;99.90;;;;;;5071457;28;20141;-62
2023/06/19 06:06:23;;;;;;;2.47;1.27;;;19.90;99.90;;;;;;5069359;28;20604;-62
2023/06/19 06:08:51;;;;;;;3.38;1.80;;;19.80;99.90;;;;;;5050436;28;20126;-63
2023/06/19 06:11:17;;;;;;;3.55;2.08;;;19.80;99.90;;;;;;5052127;28;20098;-63
2023/06/19 06:13:43;;;;;;;4.97;2.40;;;19.80;99.90;;;;;;5051529;28;20029;-62
2023/06/19 06:16:09;;;;;;;4.35;2.50;;;19.80;99.90;;;;;;5050770;28;20398;-62
2023/06/19 06:18:35;;;;;;;3.90;1.95;;;19.70;99.90;;;;;;5050704;28;20593;-61
2023/06/19 06:21:04;;;;;;;4.07;2.25;;;19.70;99.90;;;;;;5050152;28;20120;-63
2023/06/19 06:23:33;;;;;;;4.88;2.70;;;19.60;99.90;;;;;;5034573;28;20148;-64
2023/06/19 06:26:02;;;;;;;6.70;3.60;;;19.60;99.90;;;;;;5051841;28;20529;-61
2023/06/19 06:28:28;;;;;;;5.15;2.78;;;19.60;99.90;;;;;;5066573;28;20044;-63
2023/06/19 06:30:54;;;;;;;9.23;3.15;;;19.60;99.90;;;;;;5053546;28;20036;-63
2023/06/19 06:33:20;;;;;;;7.65;3.38;;;19.60;99.90;;;;;;5071481;28;20102;-63
2023/06/19 06:35:46;;;;;;;7.82;3.13;;;19.70;99.90;;;;;;5070738;28;20036;-64
2023/06/19 06:38:12;;;;;;;9.85;4.20;;;19.80;99.90;;;;;;5050245;28;20425;-63
2023/06/19 06:40:38;;;;;;;9.30;3.88;;;19.80;99.90;;;;;;5049629;28;20076;-64
2023/06/19 06:43:03;;;;;;;10.43;4.68;;;19.90;99.90;;;;;;5051397;28;20040;-64
2023/06/19 06:45:29;;;;;;;7.90;4.03;;;19.90;99.90;;;;;;5051536;28;20094;-65
2023/06/19 06:47:55;;;;;;;9.05;3.58;;;19.90;99.90;;;;;;5049502;28;20393;-63
2023/06/19 06:50:21;;;;;;;7.97;3.88;;;19.90;99.90;;;;;;5049936;28;20093;-63
2023/06/19 06:52:47;;;;;;;9.93;4.85;;;19.90;99.90;;;;;;5051227;28;20139;-63
2023/06/19 06:55:12;;;;;;;8.38;4.07;;;19.90;99.90;;;;;;5050659;28;20207;-63
2023/06/19 06:57:38;;;;;;;9.60;4.00;;;19.90;99.90;;;;;;5050118;28;20051;-64
2023/06/19 07:00:05;;;;;;;10.43;4.28;;;19.90;99.90;;;;;;5058257;28;20473;-63
2023/06/19 07:02:31;;;;;;;7.43;3.45;;;19.90;99.90;;;;;;5060760;28;20040;-64
2023/06/19 07:04:57;;;;;;;9.13;3.38;;;19.90;99.90;;;;;;5068926;28;20040;-64
2023/06/19 07:07:24;;;;;;;8.27;3.08;;;19.80;99.90;;;;;;5070663;28;20503;-63
2023/06/19 07:09:51;;;;;;;6.75;2.75;;;19.80;99.90;;;;;;5070102;28;20113;-63
2023/06/19 07:12:17;;;;;;;5.20;3.20;;;19.80;99.90;;;;;;5070719;28;20483;-64
2023/06/19 07:14:42;;;;;;;6.20;3.45;;;19.80;99.90;;;;;;5069773;28;20119;-64
2023/06/19 07:17:08;;;;;;;9.50;3.20;;;19.80;99.90;;;;;;5068774;28;20044;-64
2023/06/19 07:19:34;;;;;;;7.78;3.53;;;19.80;99.90;;;;;;5069594;28;20044;-64
2023/06/19 07:22:00;;;;;;;7.15;3.67;;;19.90;99.90;;;;;;5069208;28;21396;-64
2023/06/19 07:24:26;;;;;;;5.88;2.60;;;19.90;99.90;;;;;;5068732;28;20493;-64
2023/06/19 07:26:52;;;;;;;5.90;3.17;;;19.90;99.90;;;;;;5069130;28;20044;-64
2023/06/19 07:29:17;;;;;;;6.93;3.30;;;19.90;99.90;;;;;;5069476;28;20032;-64
2023/06/19 07:31:43;;;;;;;9.55;2.63;;;19.90;99.90;;;;;;5068561;28;20495;-64
2023/06/19 07:34:09;;;;;;;5.78;2.42;;;19.90;99.90;;;;;;5069411;28;20044;-64
2023/06/19 07:36:35;;;;;;;6.00;2.40;;;19.90;99.90;;;;;;5068772;28;20550;-64
2023/06/19 07:39:01;;;;;;;4.72;2.20;;;19.90;99.90;;;;;;5069090;28;20404;-64
2023/06/19 07:41:27;;;;;;;3.38;1.95;;;19.90;99.90;;;;;;5051796;28;20043;-64
2023/06/19 07:43:53;;;;;;;3.97;2.35;;;19.90;99.90;;;;;;5069973;28;20393;-64
2023/06/19 07:46:19;;;;;;;5.57;2.50;;;19.90;99.90;;;;;;5069294;28;20037;-63
2023/06/19 07:48:45;;;;;;;4.72;2.53;;;19.90;99.90;;;;;;5052473;28;20126;-64
2023/06/19 07:51:11;;;;;;;4.55;1.92;;;20.00;99.90;;;;;;5068323;28;20044;-64
2023/06/19 07:53:37;;;;;;;5.20;2.50;;;20.00;99.90;;;;;;5070348;28;20066;-64
2023/06/19 07:56:03;;;;;;;6.68;2.95;;;20.10;99.90;;;;;;5068980;28;20041;-63
2023/06/19 07:58:30;;;;;;;4.47;2.45;;;20.20;99.90;;;;;;5068363;28;20477;-62
2023/06/19 08:00:55;;;;;;;3.63;1.83;;;20.30;99.90;;;;;;5052254;28;20047;-63
2023/06/19 08:03:22;;;;;;;8.57;1.58;;;20.40;99.90;;;;;;5069031;28;20032;-64
2023/06/19 08:05:48;;;;;;;2.35;1.48;;;20.60;99.90;;;;;;5069589;28;20036;-64
2023/06/19 08:08:14;;;;;;;4.25;1.58;;;20.70;99.90;;;;;;5068915;28;20491;-64
2023/06/19 08:10:40;;;;;;;2.05;0.93;;;20.70;99.90;;;;;;5068971;28;20036;-63
2023/06/19 08:13:06;;;;;;;4.15;1.42;;;20.90;99.90;;;;;;5051468;28;20051;-63
2023/06/19 08:15:32;;;;;;;1.75;0.90;;;20.90;99.90;;;;;;5069036;28;20040;-63
2023/06/19 08:17:58;;;;;;;2.10;1.52;;;21.00;99.90;;;;;;5068675;28;20413;-63
2023/06/19 08:20:24;;;;;;;3.38;1.25;;;21.10;99.90;;;;;;5068308;28;20043;-63
2023/06/19 08:22:50;;;;;;;1.52;0.82;;;21.10;99.90;;;;;;5051830;28;20546;-62
2023/06/19 08:25:16;;;;;;;2.17;1.42;;;21.20;99.90;;;;;;5052414;28;20586;-62
2023/06/19 08:27:45;;;;;;;2.97;1.83;;;21.40;99.90;;;;;;5051629;28;20068;-62
2023/06/19 08:30:11;;;;;;;2.20;1.40;;;21.60;99.90;;;;;;5068914;28;20044;-64
2023/06/19 08:32:37;;;;;;;2.85;1.58;;;21.70;99.90;;;;;;5068196;28;20040;-64
2023/06/19 08:35:03;;;;;;;2.58;1.20;;;21.60;99.90;;;;;;5068792;28;20045;-64
2023/06/19 08:37:29;;;;;;;3.58;1.98;;;21.60;99.90;;;;;;5067929;28;20052;-64
2023/06/19 08:39:56;;;;;;;4.03;1.73;;;21.50;99.90;;;;;;5050468;28;20041;-64
2023/06/19 08:42:22;;;;;;;3.28;1.73;;;21.50;99.90;;;;;;5067782;28;20066;-64
2023/06/19 08:44:49;;;;;;;3.55;2.17;;;21.40;99.90;;;;;;5067878;28;20044;-64
2023/06/19 08:47:15;;;;;;;5.25;2.28;;;21.20;99.90;;;;;;5067222;28;20037;-63
2023/06/19 08:49:40;;;;;;;5.72;2.63;;;21.10;99.90;;;;;;5051074;28;20405;-63
2023/06/19 08:52:07;;;;;;;4.55;2.33;;;21.10;99.90;;;;;;5068550;28;20051;-64
2023/06/19 08:54:33;;;;;;;4.53;2.60;;;21.10;99.90;;;;;;5054074;28;20148;-64
2023/06/19 08:57:03;;;;;;;5.35;2.88;;;21.00;99.90;;;;;;5072572;28;20127;-63
2023/06/19 08:59:31;;;;;;;4.43;2.40;;;21.00;99.90;;;;;;5054524;28;20045;-64
2023/06/19 09:01:57;;;;;;;8.55;2.67;;;21.00;99.90;;;;;;5071962;28;20032;-64
2023/06/19 09:04:27;;;;;;;5.63;2.47;;;20.90;99.90;;;;;;5071200;28;20792;-63
2023/06/19 09:07:02;;;;;;;7.03;2.60;;;20.90;99.90;;;;;;5054549;28;20106;-63
2023/06/19 09:09:28;;;;;;;5.03;2.58;;;21.00;99.90;;;;;;5071999;28;20040;-63
2023/06/19 09:11:57;;;;;;;8.38;3.88;;;21.10;99.90;;;;;;5054616;28;20040;-64
2023/06/19 09:14:40;;;;;;;6.70;3.20;;;21.10;99.90;;;;;;5071160;28;20127;-63
2023/06/19 09:17:13;;;;;;;7.57;3.75;;;21.20;99.90;;;;;;5054800;28;20540;-62
2023/06/19 09:19:48;;;;;;;5.13;3.08;;;21.20;99.90;;;;;;5055530;28;20036;-63
2023/06/19 09:22:15;;;;;;;5.07;3.15;;;21.10;99.90;;;;;;5071379;28;20032;-64
2023/06/19 09:24:41;;;;;;;8.05;3.70;;;21.00;99.90;;;;;;5054799;28;20531;-63
2023/06/19 09:27:13;;;;;;;6.03;3.17;;;20.80;99.90;;;;;;5055036;28;20098;-64
2023/06/19 09:29:41;;;;;;;6.20;2.83;;;20.70;99.90;;;;;;5071461;28;20451;-63
2023/06/19 09:32:22;;;;;;;7.97;3.08;;;20.60;99.90;;;;;;5071917;28;20123;-64
2023/06/19 09:34:50;;;;;;;3.80;2.28;;;20.60;99.90;;;;;;5071638;28;20037;-64
2023/06/19 09:37:24;;;;;;;5.93;2.63;;;20.60;99.90;;;;;;5070907;28;20508;-64
2023/06/19 09:40:20;;;;;;;4.70;2.20;;;20.60;99.90;;;;;;5049811;28;20070;-64
2023/06/19 09:42:47;;;;;;;5.78;2.85;;;20.60;99.90;;;;;;5070948;28;20508;-63
2023/06/19 09:45:17;;;;;;;4.43;2.33;;;20.60;99.90;;;;;;5055031;28;20036;-64
2023/06/19 09:47:45;;;;;;;4.50;2.90;;;20.70;99.90;;;;;;5071399;28;20102;-63
2023/06/19 09:50:13;;;;;;;3.70;2.47;;;20.80;99.90;;;;;;5070812;28;20051;-63
2023/06/19 09:52:42;;;;;;;6.00;3.15;;;21.00;99.90;;;;;;5052257;28;20056;-63
2023/06/19 09:55:12;;;;;;;8.70;2.88;;;21.20;99.90;;;;;;5051489;28;20413;-63
2023/06/19 09:57:39;;;;;;;5.90;2.50;;;21.40;99.90;;;;;;5050694;28;20047;-64
2023/06/19 10:00:16;;;;;;;7.40;3.03;;;21.50;99.90;;;;;;5051407;28;20339;-63
2023/06/19 10:02:44;;;;;;;5.55;2.70;;;21.60;99.90;;;;;;5052350;28;20552;-62
2023/06/19 10:05:14;;;;;;;4.90;2.13;;;21.70;99.90;;;;;;5050110;28;20041;-64
2023/06/19 10:07:44;;;;;;;;;;;21.60;99.90;;;;;;5051480;28;20045;-64
2023/06/19 10:10:28;;;;;;;6.10;3.10;;;21.60;99.90;;;;;;5051053;28;19917;-63
2023/06/19 10:12:59;;;;;;;4.07;2.42;;;21.70;99.90;;;;;;5051202;28;20076;-63
2023/06/19 10:15:32;;;;;;;7.57;3.58;;;21.70;99.90;;;;;;5051149;28;20432;-63
2023/06/19 10:18:02;;;;;;;7.28;3.55;;;21.60;99.90;;;;;;5051622;28;20120;-63
2023/06/19 10:20:39;;;;;;;6.88;3.92;;;21.50;99.90;;;;;;5050957;28;20047;-62
2023/06/19 10:23:12;;;;;;;5.55;3.45;;;21.40;99.90;;;;;;5050703;28;20080;-63
2023/06/19 10:25:43;;;;;;;8.75;3.97;;;21.20;99.90;;;;;;5050203;28;20541;-64
2023/06/19 10:28:29;;;;;;;5.07;2.83;;;21.20;99.90;;;;;;5034469;28;20072;-64
2023/06/19 10:31:06;;;;;;;7.07;3.63;;;21.10;99.90;;;;;;5051972;28;20032;-64
2023/06/19 10:33:34;;;;;;;7.35;3.30;;;21.10;99.90;;;;;;5050028;28;20041;-63
2023/06/19 10:36:02;;;;;;;5.95;3.33;;;21.00;99.90;;;;;;5051857;28;20072;-64
2023/06/19 10:38:28;;;;;;;15.00;4.15;;;21.00;99.90;;;;;;5049384;28;20041;-63
2023/06/19 10:40:54;;;;;;;8.18;4.38;;;21.00;99.90;;;;;;5070234;28;20477;-64
2023/06/19 10:43:22;;;;;;;8.48;4.22;;;21.00;99.90;;;;;;5071675;28;20041;-63
2023/06/19 10:45:48;;;;;;;6.97;4.00;;;21.00;99.90;;;;;;5069445;28;20039;-64
2023/06/19 10:48:20;;;;;;;8.52;4.30;;;21.00;99.90;;;;;;5071473;28;20085;-64
2023/06/19 10:50:47;;;;;;;9.00;3.97;;;21.10;99.90;;;;;;5070828;28;20051;-63
2023/06/19 10:53:26;;;;;;;9.25;3.88;;;21.30;99.90;;;;;;5068332;28;20072;-63
2023/06/19 10:56:00;;;;;;;10.32;4.63;;;21.50;99.90;;;;;;5070397;28;20048;-64
2023/06/19 10:58:29;;;;;;;8.23;4.22;;;21.60;99.90;;;;;;5069924;28;20055;-62
2023/06/19 11:00:56;;;;;;;9.15;4.18;;;21.60;99.90;;;;;;5070652;28;20431;-62
2023/06/19 11:03:22;;;;;;;9.15;5.00;;;21.40;99.90;;;;;;5069803;28;20040;-63
2023/06/19 11:05:49;;;;;;;10.13;4.35;;;21.30;99.90;;;;;;5069970;28;20381;-64
2023/06/19 11:08:21;;;;;;;9.43;4.05;;;21.30;99.90;;;;;;5069326;28;20033;-64
2023/06/19 11:10:48;;;;;;;8.00;4.53;;;21.50;99.90;;;;;;5053342;28;20048;-63
2023/06/19 11:13:16;;;;;;;9.02;4.57;;;21.60;99.90;;;;;;5049771;28;20041;-63
2023/06/19 11:15:42;;;;;;;7.68;4.22;;;21.80;99.90;;;;;;5049591;28;20037;-63
2023/06/19 11:18:07;;;;;;;7.55;3.75;;;22.10;99.90;;;;;;5051117;28;20403;-63
2023/06/19 11:20:48;;;;;;;9.27;4.40;;;22.40;99.90;;;;;;5050602;28;20079;-63
2023/06/19 11:23:14;;;;;;;6.30;3.13;;;22.40;99.90;;;;;;5049656;28;20049;-62
2023/06/19 11:25:42;;;;;;;6.95;3.55;;;22.40;99.90;;;;;;5050851;28;20048;-63
2023/06/19 11:28:15;;;;;;;7.38;3.53;;;22.30;99.90;;;;;;5052623;28;20110;-63
2023/06/19 11:30:44;;;;;;;6.25;3.10;;;22.30;99.90;;;;;;5050968;28;20045;-62
2023/06/19 11:33:16;;;;;;;4.70;3.10;;;22.60;99.90;;;;;;5050965;28;20069;-63
2023/06/19 11:35:49;;;;;;;8.48;3.78;;;22.90;99.90;;;;;;5048797;28;20052;-62
2023/06/19 11:38:19;;;;;;;5.57;3.55;;;23.10;99.90;;;;;;5032829;28;20501;-63
2023/06/19 11:40:45;;;;;;;;;;;23.20;99.90;;;;;;5049730;28;20076;-63
2023/06/19 11:43:11;;;;;;;5.20;2.83;;;23.20;99.90;;;;;;5048699;28;19920;-64
2023/06/19 11:45:51;;;;;;;7.10;3.35;;;23.20;99.90;;;;;;5049262;28;20044;-63
2023/06/19 11:48:27;;;;;;;6.60;3.97;;;23.20;99.90;;;;;;5049224;28;20510;-62
2023/06/19 11:50:53;;;;;;;7.88;3.70;;;23.40;99.90;;;;;;5053279;28;20036;-63
2023/06/19 11:53:21;;;;;;;9.57;3.28;;;23.80;99.90;;;;;;5069762;28;20133;-63
2023/06/19 11:55:47;;;;;;;6.50;3.47;;;24.30;99.90;;;;;;5051346;28;20048;-63
2023/06/19 11:58:15;;;;;;;5.28;3.03;;;24.50;99.90;;;;;;5069037;28;20047;-62
2023/06/19 12:00:41;;;;;;;7.70;3.47;;;24.60;99.90;;;;;;5051957;28;20071;-63
2023/06/19 12:03:08;;;;;;;7.28;4.15;;;24.60;99.90;;;;;;5068131;28;20127;-64
2023/06/19 12:05:33;;;;;;;6.47;3.45;;;24.60;99.90;;;;;;5070350;28;20385;-64
2023/06/19 12:08:02;;;;;;;7.13;3.10;;;24.70;99.90;;;;;;5064178;28;20039;-64
2023/06/19 12:10:29;;;;;;;5.53;3.17;;;24.80;99.90;;;;;;5048590;28;20041;-62
2023/06/19 12:12:55;;;;;;;6.90;3.70;;;24.80;99.90;;;;;;5048746;28;20083;-63
2023/06/19 12:15:22;;;;;;;6.75;3.70;;;24.70;99.80;;;;;;5048951;28;20080;-64
2023/06/19 12:17:48;;;;;;;8.38;3.95;;;24.50;98.60;;;;;;5049253;28;20041;-64
2023/06/19 12:20:14;;;;;;;7.63;3.33;;;24.30;99.00;;;;;;5065603;28;20044;-63
2023/06/19 12:22:42;;;;;;;5.72;3.38;;;24.40;98.80;;;;;;5048593;28;20099;-62
2023/06/19 12:25:08;;;;;;;7.28;3.28;;;24.30;98.80;;;;;;5050098;28;20116;-63
2023/06/19 12:27:34;;;;;;;6.15;3.55;;;24.50;99.00;;;;;;5071109;28;20036;-63
2023/06/19 12:30:00;;;;;;;8.00;3.50;;;24.60;98.90;;;;;;5072212;28;20265;-63
2023/06/19 12:32:27;;;;;;;5.30;2.90;;;24.80;99.00;;;;;;5071136;28;20491;-62
2023/06/19 12:34:53;;;;;;;6.57;3.58;;;25.00;98.70;;;;;;5072816;28;20048;-64
2023/06/19 12:37:20;;;;;;;5.30;3.13;;;25.00;98.00;;;;;;5067439;28;20119;-63
2023/06/19 12:39:47;;;;;;;9.65;4.13;;;25.00;98.20;;;;;;5040576;28;20053;-63
2023/06/19 12:42:16;;;;;;;6.78;3.83;;;25.20;98.10;;;;;;5052124;28;20124;-63
2023/06/19 12:44:46;;;;;;;7.93;3.83;;;25.30;97.40;;;;;;5057699;28;20418;-63
2023/06/19 12:47:12;;;;;;;7.18;3.50;;;25.40;97.30;;;;;;5051071;28;20075;-63
2023/06/19 12:49:38;;;;;;;8.05;3.05;;;25.50;97.00;;;;;;5050965;28;20124;-63